sensor_id;sensor_type;location;lat;lon;timestamp;P1;durP1;ratioP1;P2;durP2;ratioP2
9166;SDS011;4618;48.818;9.088;2023-07-09T00:01:06;6.33;;;3.97;;
9166;SDS011;4618;48.818;9.088;2023-07-09T00:03:37;4.83;;;3.70;;
9166;SDS011;4618;48.818;9.088;2023-07-09T00:06:02;5.07;;;4.20;;
9166;SDS011;4618;48.818;9.088;2023-07-09T00:08:29;6.60;;;3.73;;
9166;SDS011;4618;48.818;9.088;2023-07-09T00:10:56;5.67;;;4.33;;
9166;SDS011;4618;48.818;9.088;2023-07-09T00:13:23;6.10;;;4.53;;
9166;SDS011;4618;48.818;9.088;2023-07-09T00:15:50;4.97;;;4.40;;
9166;SDS011;4618;48.818;9.088;2023-07-09T00:18:16;6.57;;;4.43;;
9166;SDS011;4618;48.818;9.088;2023-07-09T00:20:42;7.07;;;5.30;;
9166;SDS011;4618;48.818;9.088;2023-07-09T00:23:08;6.10;;;4.60;;
9166;SDS011;4618;48.818;9.088;2023-07-09T00:25:34;4.43;;;3.63;;
9166;SDS011;4618;48.818;9.088;2023-07-09T00:28:01;4.07;;;3.67;;
9166;SDS011;4618;48.818;9.088;2023-07-09T00:30:27;4.57;;;4.17;;
9166;SDS011;4618;48.818;9.088;2023-07-09T00:32:52;4.57;;;4.13;;
9166;SDS011;4618;48.818;9.088;2023-07-09T00:35:19;4.53;;;4.03;;
9166;SDS011;4618;48.818;9.088;2023-07-09T00:37:46;6.50;;;5.00;;
9166;SDS011;4618;48.818;9.088;2023-07-09T00:40:17;5.10;;;4.57;;
9166;SDS011;4618;48.818;9.088;2023-07-09T00:42:48;5.93;;;4.50;;
9166;SDS011;4618;48.818;9.088;2023-07-09T00:45:17;6.83;;;4.53;;
9166;SDS011;4618;48.818;9.088;2023-07-09T00:47:50;8.70;;;5.20;;
9166;SDS011;4618;48.818;9.088;2023-07-09T00:53:15;6.87;;;5.10;;
9166;SDS011;4618;48.818;9.088;2023-07-09T00:55:43;7.33;;;4.63;;
9166;SDS011;4618;48.818;9.088;2023-07-09T00:58:11;7.57;;;5.40;;
9166;SDS011;4618;48.818;9.088;2023-07-09T01:00:44;5.20;;;4.70;;
9166;SDS011;4618;48.818;9.088;2023-07-09T01:03:58;6.37;;;5.10;;
9166;SDS011;4618;48.818;9.088;2023-07-09T01:06:09;5.13;;;4.63;;
9166;SDS011;4618;48.818;9.088;2023-07-09T01:08:36;8.67;;;5.13;;
9166;SDS011;4618;48.818;9.088;2023-07-09T01:11:13;7.00;;;4.80;;
9166;SDS011;4618;48.818;9.088;2023-07-09T01:13:46;5.43;;;4.80;;
9166;SDS011;4618;48.818;9.088;2023-07-09T01:16:19;5.10;;;4.57;;
9166;SDS011;4618;48.818;9.088;2023-07-09T01:18:48;5.83;;;4.70;;
9166;SDS011;4618;48.818;9.088;2023-07-09T01:21:14;8.07;;;5.40;;
9166;SDS011;4618;48.818;9.088;2023-07-09T01:23:44;9.00;;;5.27;;
9166;SDS011;4618;48.818;9.088;2023-07-09T01:26:11;7.40;;;5.10;;
9166;SDS011;4618;48.818;9.088;2023-07-09T01:28:50;5.83;;;4.60;;
9166;SDS011;4618;48.818;9.088;2023-07-09T01:31:16;6.20;;;4.53;;
9166;SDS011;4618;48.818;9.088;2023-07-09T01:33:42;6.37;;;5.07;;
9166;SDS011;4618;48.818;9.088;2023-07-09T01:36:09;6.77;;;4.97;;
9166;SDS011;4618;48.818;9.088;2023-07-09T01:38:38;6.13;;;5.27;;
9166;SDS011;4618;48.818;9.088;2023-07-09T01:41:04;5.33;;;4.83;;
9166;SDS011;4618;48.818;9.088;2023-07-09T01:43:30;6.43;;;4.67;;
9166;SDS011;4618;48.818;9.088;2023-07-09T01:45:57;5.83;;;4.53;;
9166;SDS011;4618;48.818;9.088;2023-07-09T01:48:24;6.70;;;4.43;;
9166;SDS011;4618;48.818;9.088;2023-07-09T01:50:51;5.63;;;4.60;;
9166;SDS011;4618;48.818;9.088;2023-07-09T01:53:18;6.23;;;4.40;;
9166;SDS011;4618;48.818;9.088;2023-07-09T01:55:48;5.20;;;4.40;;
9166;SDS011;4618;48.818;9.088;2023-07-09T01:58:14;5.20;;;4.70;;
9166;SDS011;4618;48.818;9.088;2023-07-09T02:00:41;6.17;;;5.10;;
9166;SDS011;4618;48.818;9.088;2023-07-09T02:03:07;4.40;;;3.87;;
9166;SDS011;4618;48.818;9.088;2023-07-09T02:05:34;5.60;;;4.83;;
9166;SDS011;4618;48.818;9.088;2023-07-09T02:08:01;5.63;;;4.70;;
9166;SDS011;4618;48.818;9.088;2023-07-09T02:10:27;5.30;;;4.80;;
9166;SDS011;4618;48.818;9.088;2023-07-09T02:12:53;5.17;;;4.67;;
9166;SDS011;4618;48.818;9.088;2023-07-09T02:15:18;8.03;;;5.77;;
9166;SDS011;4618;48.818;9.088;2023-07-09T02:17:44;9.27;;;6.13;;
9166;SDS011;4618;48.818;9.088;2023-07-09T02:20:10;5.57;;;5.10;;
9166;SDS011;4618;48.818;9.088;2023-07-09T02:22:38;5.77;;;4.60;;
9166;SDS011;4618;48.818;9.088;2023-07-09T02:25:05;6.10;;;4.60;;
9166;SDS011;4618;48.818;9.088;2023-07-09T02:27:32;5.73;;;5.13;;
9166;SDS011;4618;48.818;9.088;2023-07-09T02:29:58;5.93;;;5.03;;
9166;SDS011;4618;48.818;9.088;2023-07-09T02:32:25;7.87;;;4.70;;
9166;SDS011;4618;48.818;9.088;2023-07-09T02:34:52;6.90;;;4.50;;
9166;SDS011;4618;48.818;9.088;2023-07-09T02:37:25;6.90;;;5.27;;
9166;SDS011;4618;48.818;9.088;2023-07-09T02:39:51;5.97;;;4.80;;
9166;SDS011;4618;48.818;9.088;2023-07-09T02:42:18;8.70;;;4.60;;
9166;SDS011;4618;48.818;9.088;2023-07-09T02:44:44;5.50;;;4.70;;
9166;SDS011;4618;48.818;9.088;2023-07-09T02:47:10;5.53;;;5.00;;
9166;SDS011;4618;48.818;9.088;2023-07-09T02:49:37;5.57;;;4.90;;
9166;SDS011;4618;48.818;9.088;2023-07-09T02:52:03;6.80;;;4.77;;
9166;SDS011;4618;48.818;9.088;2023-07-09T02:54:29;6.50;;;5.20;;
9166;SDS011;4618;48.818;9.088;2023-07-09T02:56:55;5.13;;;4.63;;
9166;SDS011;4618;48.818;9.088;2023-07-09T02:59:20;5.40;;;4.37;;
9166;SDS011;4618;48.818;9.088;2023-07-09T03:01:46;4.87;;;4.40;;
9166;SDS011;4618;48.818;9.088;2023-07-09T03:04:12;5.37;;;4.50;;
9166;SDS011;4618;48.818;9.088;2023-07-09T03:06:39;4.67;;;4.27;;
9166;SDS011;4618;48.818;9.088;2023-07-09T03:09:05;6.00;;;4.53;;
9166;SDS011;4618;48.818;9.088;2023-07-09T03:11:32;6.13;;;4.93;;
9166;SDS011;4618;48.818;9.088;2023-07-09T03:13:59;9.50;;;4.73;;
9166;SDS011;4618;48.818;9.088;2023-07-09T03:16:27;5.90;;;4.93;;
9166;SDS011;4618;48.818;9.088;2023-07-09T03:18:54;8.70;;;5.03;;
9166;SDS011;4618;48.818;9.088;2023-07-09T03:21:20;5.53;;;5.03;;
9166;SDS011;4618;48.818;9.088;2023-07-09T03:23:50;6.53;;;4.73;;
9166;SDS011;4618;48.818;9.088;2023-07-09T03:26:16;7.87;;;5.30;;
9166;SDS011;4618;48.818;9.088;2023-07-09T03:28:42;6.40;;;4.73;;
9166;SDS011;4618;48.818;9.088;2023-07-09T03:31:08;5.50;;;4.50;;
9166;SDS011;4618;48.818;9.088;2023-07-09T03:33:33;5.63;;;4.70;;
9166;SDS011;4618;48.818;9.088;2023-07-09T03:35:59;7.00;;;4.20;;
9166;SDS011;4618;48.818;9.088;2023-07-09T03:38:25;6.67;;;4.90;;
9166;SDS011;4618;48.818;9.088;2023-07-09T03:40:54;5.03;;;4.50;;
9166;SDS011;4618;48.818;9.088;2023-07-09T03:43:20;5.03;;;4.13;;
9166;SDS011;4618;48.818;9.088;2023-07-09T03:45:46;5.97;;;4.47;;
9166;SDS011;4618;48.818;9.088;2023-07-09T03:48:13;5.23;;;4.70;;
9166;SDS011;4618;48.818;9.088;2023-07-09T03:50:41;5.60;;;4.80;;
9166;SDS011;4618;48.818;9.088;2023-07-09T03:53:08;6.33;;;4.50;;
9166;SDS011;4618;48.818;9.088;2023-07-09T03:55:34;5.50;;;5.00;;
9166;SDS011;4618;48.818;9.088;2023-07-09T03:57:59;5.47;;;4.77;;
9166;SDS011;4618;48.818;9.088;2023-07-09T04:00:25;5.57;;;4.70;;
9166;SDS011;4618;48.818;9.088;2023-07-09T04:02:51;6.03;;;4.40;;
9166;SDS011;4618;48.818;9.088;2023-07-09T04:05:17;6.03;;;4.83;;
9166;SDS011;4618;48.818;9.088;2023-07-09T04:07:43;6.10;;;4.40;;
9166;SDS011;4618;48.818;9.088;2023-07-09T04:10:09;5.63;;;4.50;;
9166;SDS011;4618;48.818;9.088;2023-07-09T04:12:35;5.83;;;4.90;;
9166;SDS011;4618;48.818;9.088;2023-07-09T04:15:02;5.37;;;4.27;;
9166;SDS011;4618;48.818;9.088;2023-07-09T04:17:28;4.80;;;4.30;;
9166;SDS011;4618;48.818;9.088;2023-07-09T04:19:54;6.13;;;5.03;;
9166;SDS011;4618;48.818;9.088;2023-07-09T04:22:19;5.67;;;4.37;;
9166;SDS011;4618;48.818;9.088;2023-07-09T04:24:46;5.30;;;4.80;;
9166;SDS011;4618;48.818;9.088;2023-07-09T04:27:11;5.77;;;4.70;;
9166;SDS011;4618;48.818;9.088;2023-07-09T04:29:39;5.27;;;4.67;;
9166;SDS011;4618;48.818;9.088;2023-07-09T04:32:05;6.50;;;4.60;;
9166;SDS011;4618;48.818;9.088;2023-07-09T04:34:33;5.57;;;4.57;;
9166;SDS011;4618;48.818;9.088;2023-07-09T04:36:58;6.97;;;4.63;;
9166;SDS011;4618;48.818;9.088;2023-07-09T04:39:24;7.27;;;4.57;;
9166;SDS011;4618;48.818;9.088;2023-07-09T04:41:50;5.93;;;4.60;;
9166;SDS011;4618;48.818;9.088;2023-07-09T04:44:15;6.33;;;4.57;;
9166;SDS011;4618;48.818;9.088;2023-07-09T04:46:41;5.97;;;4.10;;
9166;SDS011;4618;48.818;9.088;2023-07-09T04:49:07;5.40;;;4.10;;
9166;SDS011;4618;48.818;9.088;2023-07-09T04:51:33;7.37;;;4.47;;
9166;SDS011;4618;48.818;9.088;2023-07-09T04:53:59;6.83;;;4.37;;
9166;SDS011;4618;48.818;9.088;2023-07-09T04:56:29;4.67;;;4.27;;
9166;SDS011;4618;48.818;9.088;2023-07-09T04:58:55;7.87;;;4.20;;
9166;SDS011;4618;48.818;9.088;2023-07-09T05:01:21;7.47;;;4.77;;
9166;SDS011;4618;48.818;9.088;2023-07-09T05:03:46;5.77;;;4.00;;
9166;SDS011;4618;48.818;9.088;2023-07-09T05:06:12;5.57;;;4.60;;
9166;SDS011;4618;48.818;9.088;2023-07-09T05:08:38;6.33;;;4.27;;
9166;SDS011;4618;48.818;9.088;2023-07-09T05:11:03;4.63;;;3.80;;
9166;SDS011;4618;48.818;9.088;2023-07-09T05:13:29;4.57;;;4.17;;
9166;SDS011;4618;48.818;9.088;2023-07-09T05:15:54;6.83;;;4.60;;
9166;SDS011;4618;48.818;9.088;2023-07-09T05:18:20;6.50;;;4.37;;
9166;SDS011;4618;48.818;9.088;2023-07-09T05:20:46;5.10;;;4.33;;
9166;SDS011;4618;48.818;9.088;2023-07-09T05:23:12;5.73;;;4.40;;
9166;SDS011;4618;48.818;9.088;2023-07-09T05:25:38;8.50;;;4.37;;
9166;SDS011;4618;48.818;9.088;2023-07-09T05:28:03;4.80;;;4.40;;
9166;SDS011;4618;48.818;9.088;2023-07-09T05:30:30;7.63;;;4.40;;
9166;SDS011;4618;48.818;9.088;2023-07-09T05:32:56;4.10;;;3.80;;
9166;SDS011;4618;48.818;9.088;2023-07-09T05:35:23;6.43;;;3.80;;
9166;SDS011;4618;48.818;9.088;2023-07-09T05:37:50;4.53;;;3.80;;
9166;SDS011;4618;48.818;9.088;2023-07-09T05:40:19;4.80;;;3.70;;
9166;SDS011;4618;48.818;9.088;2023-07-09T05:42:46;4.53;;;4.00;;
9166;SDS011;4618;48.818;9.088;2023-07-09T05:45:12;4.53;;;3.95;;
9166;SDS011;4618;48.818;9.088;2023-07-09T05:47:38;7.60;;;3.90;;
9166;SDS011;4618;48.818;9.088;2023-07-09T05:50:04;3.83;;;3.53;;
9166;SDS011;4618;48.818;9.088;2023-07-09T05:52:30;5.28;;;4.30;;
9166;SDS011;4618;48.818;9.088;2023-07-09T05:54:55;5.68;;;3.65;;
9166;SDS011;4618;48.818;9.088;2023-07-09T05:57:21;4.60;;;3.63;;
9166;SDS011;4618;48.818;9.088;2023-07-09T05:59:47;5.90;;;3.92;;
9166;SDS011;4618;48.818;9.088;2023-07-09T06:02:14;4.32;;;3.58;;
9166;SDS011;4618;48.818;9.088;2023-07-09T06:04:43;5.22;;;3.70;;
9166;SDS011;4618;48.818;9.088;2023-07-09T06:07:10;4.15;;;3.38;;
9166;SDS011;4618;48.818;9.088;2023-07-09T06:09:38;7.78;;;4.03;;
9166;SDS011;4618;48.818;9.088;2023-07-09T06:12:04;7.72;;;3.65;;
9166;SDS011;4618;48.818;9.088;2023-07-09T06:14:31;4.75;;;3.75;;
9166;SDS011;4618;48.818;9.088;2023-07-09T06:16:57;4.10;;;3.70;;
9166;SDS011;4618;48.818;9.088;2023-07-09T06:19:22;5.45;;;3.88;;
9166;SDS011;4618;48.818;9.088;2023-07-09T06:21:48;4.63;;;3.67;;
9166;SDS011;4618;48.818;9.088;2023-07-09T06:24:14;3.83;;;3.40;;
9166;SDS011;4618;48.818;9.088;2023-07-09T06:26:39;4.18;;;3.58;;
9166;SDS011;4618;48.818;9.088;2023-07-09T06:29:05;5.78;;;3.70;;
9166;SDS011;4618;48.818;9.088;2023-07-09T06:31:30;4.05;;;3.55;;
9166;SDS011;4618;48.818;9.088;2023-07-09T06:33:56;6.00;;;3.75;;
9166;SDS011;4618;48.818;9.088;2023-07-09T06:36:22;3.67;;;3.35;;
9166;SDS011;4618;48.818;9.088;2023-07-09T06:38:48;4.70;;;3.40;;
9166;SDS011;4618;48.818;9.088;2023-07-09T06:41:14;4.78;;;3.53;;
9166;SDS011;4618;48.818;9.088;2023-07-09T06:43:40;4.00;;;3.60;;
9166;SDS011;4618;48.818;9.088;2023-07-09T06:46:06;5.13;;;3.60;;
9166;SDS011;4618;48.818;9.088;2023-07-09T06:48:34;3.75;;;3.13;;
9166;SDS011;4618;48.818;9.088;2023-07-09T06:51:00;3.97;;;3.60;;
9166;SDS011;4618;48.818;9.088;2023-07-09T06:53:26;4.15;;;3.75;;
9166;SDS011;4618;48.818;9.088;2023-07-09T06:55:53;4.90;;;4.00;;
9166;SDS011;4618;48.818;9.088;2023-07-09T06:58:20;4.45;;;3.47;;
9166;SDS011;4618;48.818;9.088;2023-07-09T07:00:48;5.18;;;4.05;;
9166;SDS011;4618;48.818;9.088;2023-07-09T07:03:14;7.63;;;3.97;;
9166;SDS011;4618;48.818;9.088;2023-07-09T07:05:44;5.45;;;3.70;;
9166;SDS011;4618;48.818;9.088;2023-07-09T07:08:12;4.85;;;3.95;;
9166;SDS011;4618;48.818;9.088;2023-07-09T07:10:40;4.88;;;3.60;;
9166;SDS011;4618;48.818;9.088;2023-07-09T07:13:05;4.40;;;4.00;;
9166;SDS011;4618;48.818;9.088;2023-07-09T07:15:31;6.05;;;3.55;;
9166;SDS011;4618;48.818;9.088;2023-07-09T07:17:57;5.35;;;3.80;;
9166;SDS011;4618;48.818;9.088;2023-07-09T07:20:22;5.65;;;5.00;;
9166;SDS011;4618;48.818;9.088;2023-07-09T07:22:48;6.50;;;4.28;;
9166;SDS011;4618;48.818;9.088;2023-07-09T07:25:14;7.93;;;3.95;;
9166;SDS011;4618;48.818;9.088;2023-07-09T07:27:40;5.10;;;4.10;;
9166;SDS011;4618;48.818;9.088;2023-07-09T07:30:06;3.80;;;3.45;;
9166;SDS011;4618;48.818;9.088;2023-07-09T07:32:38;4.20;;;3.60;;
9166;SDS011;4618;48.818;9.088;2023-07-09T07:35:09;5.43;;;3.42;;
9166;SDS011;4618;48.818;9.088;2023-07-09T07:37:34;4.15;;;3.50;;
9166;SDS011;4618;48.818;9.088;2023-07-09T07:40:00;5.63;;;3.30;;
9166;SDS011;4618;48.818;9.088;2023-07-09T07:42:26;3.88;;;2.90;;
9166;SDS011;4618;48.818;9.088;2023-07-09T07:44:52;4.18;;;2.95;;
9166;SDS011;4618;48.818;9.088;2023-07-09T07:47:18;3.53;;;3.10;;
9166;SDS011;4618;48.818;9.088;2023-07-09T07:49:44;4.57;;;3.17;;
9166;SDS011;4618;48.818;9.088;2023-07-09T07:52:10;3.20;;;2.90;;
9166;SDS011;4618;48.818;9.088;2023-07-09T07:54:36;5.05;;;2.75;;
9166;SDS011;4618;48.818;9.088;2023-07-09T07:57:02;7.80;;;3.03;;
9166;SDS011;4618;48.818;9.088;2023-07-09T07:59:28;4.25;;;2.78;;
9166;SDS011;4618;48.818;9.088;2023-07-09T08:01:54;3.38;;;3.08;;
9166;SDS011;4618;48.818;9.088;2023-07-09T08:04:20;3.45;;;3.10;;
9166;SDS011;4618;48.818;9.088;2023-07-09T08:06:46;3.45;;;3.08;;
9166;SDS011;4618;48.818;9.088;2023-07-09T08:09:12;5.40;;;2.90;;
9166;SDS011;4618;48.818;9.088;2023-07-09T08:11:38;3.10;;;2.90;;
9166;SDS011;4618;48.818;9.088;2023-07-09T08:14:04;3.58;;;2.47;;
9166;SDS011;4618;48.818;9.088;2023-07-09T08:16:29;3.95;;;2.85;;
9166;SDS011;4618;48.818;9.088;2023-07-09T08:18:55;3.65;;;2.90;;
9166;SDS011;4618;48.818;9.088;2023-07-09T08:21:21;4.43;;;2.88;;
9166;SDS011;4618;48.818;9.088;2023-07-09T08:23:47;5.63;;;2.83;;
9166;SDS011;4618;48.818;9.088;2023-07-09T08:26:13;3.35;;;2.80;;
9166;SDS011;4618;48.818;9.088;2023-07-09T08:28:39;5.70;;;2.75;;
9166;SDS011;4618;48.818;9.088;2023-07-09T08:31:04;3.60;;;2.63;;
9166;SDS011;4618;48.818;9.088;2023-07-09T08:33:30;4.22;;;2.72;;
9166;SDS011;4618;48.818;9.088;2023-07-09T08:35:56;2.97;;;2.65;;
9166;SDS011;4618;48.818;9.088;2023-07-09T08:38:22;3.10;;;2.80;;
9166;SDS011;4618;48.818;9.088;2023-07-09T08:40:56;5.00;;;2.92;;
9166;SDS011;4618;48.818;9.088;2023-07-09T08:46:39;4.25;;;2.50;;
9166;SDS011;4618;48.818;9.088;2023-07-09T08:49:19;4.85;;;3.00;;
9166;SDS011;4618;48.818;9.088;2023-07-09T08:51:48;4.03;;;2.90;;
9166;SDS011;4618;48.818;9.088;2023-07-09T08:54:22;3.88;;;2.70;;
9166;SDS011;4618;48.818;9.088;2023-07-09T08:56:50;3.70;;;2.67;;
9166;SDS011;4618;48.818;9.088;2023-07-09T08:59:19;5.70;;;2.90;;
9166;SDS011;4618;48.818;9.088;2023-07-09T09:01:49;4.60;;;2.63;;
9166;SDS011;4618;48.818;9.088;2023-07-09T09:04:20;4.53;;;2.83;;
9166;SDS011;4618;48.818;9.088;2023-07-09T09:06:51;5.13;;;3.00;;
9166;SDS011;4618;48.818;9.088;2023-07-09T09:09:28;3.47;;;2.72;;
9166;SDS011;4618;48.818;9.088;2023-07-09T09:12:19;5.30;;;3.10;;
9166;SDS011;4618;48.818;9.088;2023-07-09T09:14:59;6.68;;;2.90;;
9166;SDS011;4618;48.818;9.088;2023-07-09T09:17:27;3.47;;;2.83;;
9166;SDS011;4618;48.818;9.088;2023-07-09T09:19:58;4.90;;;2.80;;
9166;SDS011;4618;48.818;9.088;2023-07-09T09:22:27;5.13;;;2.97;;
9166;SDS011;4618;48.818;9.088;2023-07-09T09:27:42;2.75;;;2.55;;
9166;SDS011;4618;48.818;9.088;2023-07-09T09:30:11;3.40;;;2.90;;
9166;SDS011;4618;48.818;9.088;2023-07-09T09:32:49;4.97;;;3.30;;
9166;SDS011;4618;48.818;9.088;2023-07-09T09:35:19;3.35;;;3.00;;
9166;SDS011;4618;48.818;9.088;2023-07-09T09:37:51;4.22;;;3.00;;
9166;SDS011;4618;48.818;9.088;2023-07-09T09:40:19;3.70;;;2.80;;
9166;SDS011;4618;48.818;9.088;2023-07-09T09:42:51;3.58;;;2.90;;
9166;SDS011;4618;48.818;9.088;2023-07-09T09:45:19;3.58;;;3.28;;
9166;SDS011;4618;48.818;9.088;2023-07-09T09:47:49;4.03;;;3.00;;
9166;SDS011;4618;48.818;9.088;2023-07-09T09:50:15;5.50;;;2.78;;
9166;SDS011;4618;48.818;9.088;2023-07-09T09:52:43;3.25;;;2.85;;
9166;SDS011;4618;48.818;9.088;2023-07-09T09:55:16;4.63;;;3.30;;
9166;SDS011;4618;48.818;9.088;2023-07-09T09:57:51;4.22;;;3.00;;
9166;SDS011;4618;48.818;9.088;2023-07-09T10:00:18;4.07;;;2.70;;
9166;SDS011;4618;48.818;9.088;2023-07-09T10:02:47;3.35;;;3.05;;
9166;SDS011;4618;48.818;9.088;2023-07-09T10:05:16;3.58;;;3.00;;
9166;SDS011;4618;48.818;9.088;2023-07-09T10:08:08;3.20;;;2.90;;
9166;SDS011;4618;48.818;9.088;2023-07-09T10:10:33;3.78;;;2.97;;
9166;SDS011;4618;48.818;9.088;2023-07-09T10:13:09;3.05;;;2.70;;
9166;SDS011;4618;48.818;9.088;2023-07-09T10:23:34;10.50;;;9.38;;
9166;SDS011;4618;48.818;9.088;2023-07-09T10:26:19;8.13;;;3.60;;
9166;SDS011;4618;48.818;9.088;2023-07-09T10:31:50;4.72;;;3.67;;
9166;SDS011;4618;48.818;9.088;2023-07-09T10:37:13;20.17;;;18.38;;
9166;SDS011;4618;48.818;9.088;2023-07-09T10:39:43;14.80;;;13.40;;
9166;SDS011;4618;48.818;9.088;2023-07-09T10:42:27;8.38;;;7.57;;
9166;SDS011;4618;48.818;9.088;2023-07-09T10:44:56;4.05;;;3.08;;
9166;SDS011;4618;48.818;9.088;2023-07-09T10:47:26;4.88;;;3.20;;
9166;SDS011;4618;48.818;9.088;2023-07-09T10:49:55;6.70;;;2.85;;
9166;SDS011;4618;48.818;9.088;2023-07-09T10:52:26;5.68;;;2.83;;
9166;SDS011;4618;48.818;9.088;2023-07-09T10:54:55;2.95;;;2.40;;
9166;SDS011;4618;48.818;9.088;2023-07-09T10:57:30;3.47;;;2.63;;
9166;SDS011;4618;48.818;9.088;2023-07-09T10:59:56;2.85;;;2.50;;
9166;SDS011;4618;48.818;9.088;2023-07-09T11:02:24;3.38;;;2.60;;
9166;SDS011;4618;48.818;9.088;2023-07-09T11:04:56;4.30;;;2.70;;
9166;SDS011;4618;48.818;9.088;2023-07-09T11:07:31;5.43;;;2.65;;
9166;SDS011;4618;48.818;9.088;2023-07-09T11:10:53;4.47;;;2.72;;
9166;SDS011;4618;48.818;9.088;2023-07-09T11:13:09;4.18;;;3.78;;
9166;SDS011;4618;48.818;9.088;2023-07-09T11:15:37;5.75;;;3.80;;
9166;SDS011;4618;48.818;9.088;2023-07-09T11:18:12;3.72;;;2.83;;
9166;SDS011;4618;48.818;9.088;2023-07-09T11:20:45;4.95;;;2.85;;
9166;SDS011;4618;48.818;9.088;2023-07-09T11:23:18;3.30;;;2.78;;
9166;SDS011;4618;48.818;9.088;2023-07-09T11:25:47;5.57;;;3.00;;
9166;SDS011;4618;48.818;9.088;2023-07-09T11:28:14;3.03;;;2.70;;
9166;SDS011;4618;48.818;9.088;2023-07-09T11:30:47;2.65;;;2.45;;
9166;SDS011;4618;48.818;9.088;2023-07-09T11:33:16;2.80;;;2.60;;
9166;SDS011;4618;48.818;9.088;2023-07-09T11:35:46;4.97;;;2.78;;
9166;SDS011;4618;48.818;9.088;2023-07-09T11:38:22;7.38;;;2.90;;
9166;SDS011;4618;48.818;9.088;2023-07-09T11:40:53;6.15;;;3.60;;
9166;SDS011;4618;48.818;9.088;2023-07-09T11:44:00;5.05;;;2.80;;
9166;SDS011;4618;48.818;9.088;2023-07-09T11:46:14;4.38;;;2.63;;
9166;SDS011;4618;48.818;9.088;2023-07-09T11:48:43;4.63;;;2.88;;
9166;SDS011;4618;48.818;9.088;2023-07-09T11:51:14;6.20;;;3.10;;
9166;SDS011;4618;48.818;9.088;2023-07-09T11:53:52;3.95;;;2.92;;
9166;SDS011;4618;48.818;9.088;2023-07-09T11:56:23;2.92;;;2.58;;
9166;SDS011;4618;48.818;9.088;2023-07-09T11:58:54;9.18;;;3.30;;
9166;SDS011;4618;48.818;9.088;2023-07-09T12:01:22;4.78;;;3.00;;
9166;SDS011;4618;48.818;9.088;2023-07-09T12:03:51;4.78;;;3.10;;
9166;SDS011;4618;48.818;9.088;2023-07-09T12:06:19;5.05;;;2.97;;
9166;SDS011;4618;48.818;9.088;2023-07-09T12:08:48;3.58;;;3.10;;
9166;SDS011;4618;48.818;9.088;2023-07-09T12:11:22;5.93;;;3.38;;
9166;SDS011;4618;48.818;9.088;2023-07-09T12:13:52;3.95;;;3.08;;
9166;SDS011;4618;48.818;9.088;2023-07-09T12:16:20;5.40;;;3.47;;
9166;SDS011;4618;48.818;9.088;2023-07-09T12:18:56;5.75;;;3.15;;
9166;SDS011;4618;48.818;9.088;2023-07-09T12:21:22;7.18;;;3.17;;
9166;SDS011;4618;48.818;9.088;2023-07-09T12:23:49;6.35;;;3.40;;
9166;SDS011;4618;48.818;9.088;2023-07-09T12:26:16;4.47;;;3.42;;
9166;SDS011;4618;48.818;9.088;2023-07-09T12:28:55;5.82;;;2.83;;
9166;SDS011;4618;48.818;9.088;2023-07-09T12:31:27;5.47;;;3.00;;
9166;SDS011;4618;48.818;9.088;2023-07-09T12:33:54;6.22;;;2.78;;
9166;SDS011;4618;48.818;9.088;2023-07-09T12:36:22;4.57;;;3.28;;
9166;SDS011;4618;48.818;9.088;2023-07-09T12:38:51;4.50;;;3.30;;
9166;SDS011;4618;48.818;9.088;2023-07-09T12:41:22;5.50;;;3.20;;
9166;SDS011;4618;48.818;9.088;2023-07-09T12:43:48;4.35;;;3.05;;
9166;SDS011;4618;48.818;9.088;2023-07-09T12:46:16;3.90;;;2.83;;
9166;SDS011;4618;48.818;9.088;2023-07-09T12:48:42;4.75;;;2.90;;
9166;SDS011;4618;48.818;9.088;2023-07-09T12:51:08;4.78;;;2.75;;
9166;SDS011;4618;48.818;9.088;2023-07-09T12:53:35;4.50;;;2.90;;
9166;SDS011;4618;48.818;9.088;2023-07-09T12:56:01;4.80;;;3.00;;
9166;SDS011;4618;48.818;9.088;2023-07-09T12:58:28;4.70;;;2.67;;
9166;SDS011;4618;48.818;9.088;2023-07-09T13:01:04;4.70;;;3.20;;
9166;SDS011;4618;48.818;9.088;2023-07-09T13:03:32;5.25;;;2.55;;
9166;SDS011;4618;48.818;9.088;2023-07-09T13:06:02;4.55;;;2.95;;
9166;SDS011;4618;48.818;9.088;2023-07-09T13:08:30;6.53;;;3.15;;
9166;SDS011;4618;48.818;9.088;2023-07-09T13:10:59;4.28;;;2.72;;
9166;SDS011;4618;48.818;9.088;2023-07-09T13:13:25;6.72;;;2.95;;
9166;SDS011;4618;48.818;9.088;2023-07-09T13:16:01;5.03;;;3.15;;
9166;SDS011;4618;48.818;9.088;2023-07-09T13:18:27;4.28;;;3.17;;
9166;SDS011;4618;48.818;9.088;2023-07-09T13:20:56;4.47;;;3.00;;
9166;SDS011;4618;48.818;9.088;2023-07-09T13:23:24;6.50;;;3.25;;
9166;SDS011;4618;48.818;9.088;2023-07-09T13:25:50;4.28;;;3.03;;
9166;SDS011;4618;48.818;9.088;2023-07-09T13:28:18;3.45;;;2.95;;
9166;SDS011;4618;48.818;9.088;2023-07-09T13:30:45;6.32;;;3.20;;
9166;SDS011;4618;48.818;9.088;2023-07-09T13:33:11;4.15;;;3.00;;
9166;SDS011;4618;48.818;9.088;2023-07-09T13:35:37;5.75;;;3.20;;
9166;SDS011;4618;48.818;9.088;2023-07-09T13:38:05;5.45;;;3.20;;
9166;SDS011;4618;48.818;9.088;2023-07-09T13:40:36;3.60;;;2.90;;
9166;SDS011;4618;48.818;9.088;2023-07-09T13:43:02;4.63;;;3.13;;
9166;SDS011;4618;48.818;9.088;2023-07-09T13:45:28;4.35;;;3.17;;
9166;SDS011;4618;48.818;9.088;2023-07-09T13:47:53;5.15;;;2.75;;
9166;SDS011;4618;48.818;9.088;2023-07-09T13:50:20;6.07;;;2.88;;
9166;SDS011;4618;48.818;9.088;2023-07-09T13:52:46;5.40;;;2.83;;
9166;SDS011;4618;48.818;9.088;2023-07-09T13:55:15;8.07;;;3.13;;
9166;SDS011;4618;48.818;9.088;2023-07-09T13:57:43;4.38;;;2.85;;
9166;SDS011;4618;48.818;9.088;2023-07-09T14:00:10;4.13;;;3.10;;
9166;SDS011;4618;48.818;9.088;2023-07-09T14:02:36;5.60;;;3.03;;
9166;SDS011;4618;48.818;9.088;2023-07-09T14:05:03;5.22;;;3.13;;
9166;SDS011;4618;48.818;9.088;2023-07-09T14:07:35;5.53;;;3.40;;
9166;SDS011;4618;48.818;9.088;2023-07-09T14:10:04;5.00;;;2.90;;
9166;SDS011;4618;48.818;9.088;2023-07-09T14:12:31;4.70;;;3.20;;
9166;SDS011;4618;48.818;9.088;2023-07-09T14:14:58;5.75;;;3.38;;
9166;SDS011;4618;48.818;9.088;2023-07-09T14:17:25;4.43;;;2.90;;
9166;SDS011;4618;48.818;9.088;2023-07-09T14:19:52;4.90;;;3.20;;
9166;SDS011;4618;48.818;9.088;2023-07-09T14:22:23;9.02;;;3.10;;
9166;SDS011;4618;48.818;9.088;2023-07-09T14:24:56;7.55;;;3.60;;
9166;SDS011;4618;48.818;9.088;2023-07-09T14:27:22;5.15;;;3.03;;
9166;SDS011;4618;48.818;9.088;2023-07-09T14:29:48;4.05;;;3.00;;
9166;SDS011;4618;48.818;9.088;2023-07-09T14:32:34;5.32;;;3.05;;
9166;SDS011;4618;48.818;9.088;2023-07-09T14:35:03;4.55;;;2.88;;
9166;SDS011;4618;48.818;9.088;2023-07-09T14:37:50;4.40;;;2.70;;
9166;SDS011;4618;48.818;9.088;2023-07-09T14:40:17;4.95;;;3.10;;
9166;SDS011;4618;48.818;9.088;2023-07-09T14:42:47;4.90;;;2.72;;
9166;SDS011;4618;48.818;9.088;2023-07-09T14:47:49;6.32;;;2.90;;
9166;SDS011;4618;48.818;9.088;2023-07-09T14:50:15;3.92;;;2.72;;
9166;SDS011;4618;48.818;9.088;2023-07-09T14:52:42;4.28;;;2.85;;
9166;SDS011;4618;48.818;9.088;2023-07-09T14:55:15;4.97;;;3.17;;
9166;SDS011;4618;48.818;9.088;2023-07-09T14:57:43;5.82;;;2.85;;
9166;SDS011;4618;48.818;9.088;2023-07-09T15:00:27;3.80;;;2.90;;
9166;SDS011;4618;48.818;9.088;2023-07-09T15:02:54;6.13;;;3.10;;
9166;SDS011;4618;48.818;9.088;2023-07-09T15:05:21;7.75;;;7.07;;
9166;SDS011;4618;48.818;9.088;2023-07-09T15:07:49;7.97;;;5.18;;
9166;SDS011;4618;48.818;9.088;2023-07-09T15:10:17;5.80;;;4.60;;
9166;SDS011;4618;48.818;9.088;2023-07-09T15:12:43;4.78;;;2.92;;
9166;SDS011;4618;48.818;9.088;2023-07-09T15:15:15;3.17;;;2.53;;
9166;SDS011;4618;48.818;9.088;2023-07-09T15:17:42;4.90;;;4.20;;
9166;SDS011;4618;48.818;9.088;2023-07-09T15:20:16;8.10;;;7.25;;
9166;SDS011;4618;48.818;9.088;2023-07-09T15:22:44;7.80;;;5.55;;
9166;SDS011;4618;48.818;9.088;2023-07-09T15:25:15;4.18;;;3.65;;
9166;SDS011;4618;48.818;9.088;2023-07-09T15:27:42;4.22;;;3.08;;
9166;SDS011;4618;48.818;9.088;2023-07-09T15:30:42;8.15;;;7.05;;
9166;SDS011;4618;48.818;9.088;2023-07-09T15:33:02;10.15;;;8.77;;
9166;SDS011;4618;48.818;9.088;2023-07-09T15:35:29;3.97;;;3.63;;
9166;SDS011;4618;48.818;9.088;2023-07-09T15:37:58;4.85;;;3.45;;
9166;SDS011;4618;48.818;9.088;2023-07-09T15:40:24;4.95;;;2.85;;
9166;SDS011;4618;48.818;9.088;2023-07-09T15:42:54;6.85;;;4.28;;
9166;SDS011;4618;48.818;9.088;2023-07-09T15:45:20;6.03;;;3.05;;
9166;SDS011;4618;48.818;9.088;2023-07-09T15:47:47;4.90;;;3.00;;